sensor_id;sensor_type;location;lat;lon;timestamp;temperature;humidity
3416;DHT22;1721;51.238;9.562;2022-12-16T00:00:04;-5.70;74.70
3416;DHT22;1721;51.238;9.562;2022-12-16T00:02:30;-5.70;74.60
3416;DHT22;1721;51.238;9.562;2022-12-16T00:04:56;-5.70;74.70
3416;DHT22;1721;51.238;9.562;2022-12-16T00:07:22;-5.70;74.80
3416;DHT22;1721;51.238;9.562;2022-12-16T00:09:48;-5.70;75.00
3416;DHT22;1721;51.238;9.562;2022-12-16T00:12:13;-5.70;74.90
3416;DHT22;1721;51.238;9.562;2022-12-16T00:14:39;-5.70;74.90
3416;DHT22;1721;51.238;9.562;2022-12-16T00:17:04;-5.70;74.80
3416;DHT22;1721;51.238;9.562;2022-12-16T00:19:30;-5.70;74.60
3416;DHT22;1721;51.238;9.562;2022-12-16T00:21:56;-5.70;74.80
3416;DHT22;1721;51.238;9.562;2022-12-16T00:24:21;-5.70;75.00
3416;DHT22;1721;51.238;9.562;2022-12-16T00:26:47;-5.60;75.10
3416;DHT22;1721;51.238;9.562;2022-12-16T00:29:13;-5.60;74.90
3416;DHT22;1721;51.238;9.562;2022-12-16T00:31:39;-5.70;74.70
3416;DHT22;1721;51.238;9.562;2022-12-16T00:34:04;-5.70;75.00
3416;DHT22;1721;51.238;9.562;2022-12-16T00:36:30;-5.70;75.30
3416;DHT22;1721;51.238;9.562;2022-12-16T00:38:55;-5.70;75.50
3416;DHT22;1721;51.238;9.562;2022-12-16T00:41:21;-5.70;75.20
3416;DHT22;1721;51.238;9.562;2022-12-16T00:43:47;-5.70;74.80
3416;DHT22;1721;51.238;9.562;2022-12-16T00:46:12;-5.70;74.80
3416;DHT22;1721;51.238;9.562;2022-12-16T00:48:38;-5.70;74.90
3416;DHT22;1721;51.238;9.562;2022-12-16T00:51:04;-5.70;75.10
3416;DHT22;1721;51.238;9.562;2022-12-16T00:53:30;-5.70;75.10
3416;DHT22;1721;51.238;9.562;2022-12-16T00:56:07;-5.70;75.10
3416;DHT22;1721;51.238;9.562;2022-12-16T00:58:32;-5.70;75.10
3416;DHT22;1721;51.238;9.562;2022-12-16T01:00:58;-5.70;75.00
3416;DHT22;1721;51.238;9.562;2022-12-16T01:03:24;-5.70;75.10
3416;DHT22;1721;51.238;9.562;2022-12-16T01:05:49;-5.70;75.60
3416;DHT22;1721;51.238;9.562;2022-12-16T01:08:15;-5.70;75.50
3416;DHT22;1721;51.238;9.562;2022-12-16T01:10:41;-5.60;75.40
3416;DHT22;1721;51.238;9.562;2022-12-16T01:13:06;-5.60;75.30
3416;DHT22;1721;51.238;9.562;2022-12-16T01:15:32;-5.60;75.30
3416;DHT22;1721;51.238;9.562;2022-12-16T01:17:57;-5.60;75.50
3416;DHT22;1721;51.238;9.562;2022-12-16T01:20:23;-5.60;75.60
3416;DHT22;1721;51.238;9.562;2022-12-16T01:22:48;-5.60;75.40
3416;DHT22;1721;51.238;9.562;2022-12-16T01:25:14;-5.50;75.20
3416;DHT22;1721;51.238;9.562;2022-12-16T01:27:40;-5.60;75.00
3416;DHT22;1721;51.238;9.562;2022-12-16T01:30:06;-5.60;75.20
3416;DHT22;1721;51.238;9.562;2022-12-16T01:32:35;-5.60;75.10
3416;DHT22;1721;51.238;9.562;2022-12-16T01:35:01;-5.60;75.00
3416;DHT22;1721;51.238;9.562;2022-12-16T01:37:26;-5.60;74.50
3416;DHT22;1721;51.238;9.562;2022-12-16T01:39:52;-5.60;74.30
3416;DHT22;1721;51.238;9.562;2022-12-16T01:42:21;-5.70;73.90
3416;DHT22;1721;51.238;9.562;2022-12-16T01:44:49;-5.70;73.80
3416;DHT22;1721;51.238;9.562;2022-12-16T01:47:23;-5.70;73.90
3416;DHT22;1721;51.238;9.562;2022-12-16T01:50:03;-5.70;74.10
3416;DHT22;1721;51.238;9.562;2022-12-16T01:52:33;-5.70;74.10
3416;DHT22;1721;51.238;9.562;2022-12-16T01:55:08;-5.80;74.40
3416;DHT22;1721;51.238;9.562;2022-12-16T01:57:41;-5.80;74.60
3416;DHT22;1721;51.238;9.562;2022-12-16T02:00:10;-5.80;74.40
3416;DHT22;1721;51.238;9.562;2022-12-16T02:02:37;-5.80;74.30
3416;DHT22;1721;51.238;9.562;2022-12-16T02:05:03;-5.80;74.20
3416;DHT22;1721;51.238;9.562;2022-12-16T02:08:14;-5.90;73.90
3416;DHT22;1721;51.238;9.562;2022-12-16T02:32:25;-5.90;74.80
3416;DHT22;1721;51.238;9.562;2022-12-16T02:35:16;-5.90;74.50
3416;DHT22;1721;51.238;9.562;2022-12-16T02:40:41;-5.90;74.30
3416;DHT22;1721;51.238;9.562;2022-12-16T02:43:16;-5.90;74.40
3416;DHT22;1721;51.238;9.562;2022-12-16T02:45:44;-5.90;74.50
3416;DHT22;1721;51.238;9.562;2022-12-16T02:48:10;-5.90;74.50
3416;DHT22;1721;51.238;9.562;2022-12-16T02:50:43;-5.90;74.50
3416;DHT22;1721;51.238;9.562;2022-12-16T02:53:10;-5.90;74.50
3416;DHT22;1721;51.238;9.562;2022-12-16T02:58:22;-5.90;74.00
3416;DHT22;1721;51.238;9.562;2022-12-16T03:03:41;-6.00;74.10
3416;DHT22;1721;51.238;9.562;2022-12-16T03:06:09;-6.00;74.30
3416;DHT22;1721;51.238;9.562;2022-12-16T03:08:39;-6.00;74.30
3416;DHT22;1721;51.238;9.562;2022-12-16T03:11:06;-6.00;74.20
3416;DHT22;1721;51.238;9.562;2022-12-16T03:13:39;-6.00;74.30
3416;DHT22;1721;51.238;9.562;2022-12-16T03:16:08;-6.00;74.20
3416;DHT22;1721;51.238;9.562;2022-12-16T03:18:38;-5.90;74.20
3416;DHT22;1721;51.238;9.562;2022-12-16T03:21:07;-5.90;74.20
3416;DHT22;1721;51.238;9.562;2022-12-16T03:26:11;-6.20;74.90
3416;DHT22;1721;51.238;9.562;2022-12-16T03:28:47;-6.20;75.70
3416;DHT22;1721;51.238;9.562;2022-12-16T03:34:25;-6.10;74.80
3416;DHT22;1721;51.238;9.562;2022-12-16T03:37:02;-6.00;74.40
3416;DHT22;1721;51.238;9.562;2022-12-16T03:39:31;-6.10;74.10
3416;DHT22;1721;51.238;9.562;2022-12-16T03:41:58;-6.10;73.90
3416;DHT22;1721;51.238;9.562;2022-12-16T03:44:24;-6.10;73.80
3416;DHT22;1721;51.238;9.562;2022-12-16T03:46:51;-6.10;73.80
3416;DHT22;1721;51.238;9.562;2022-12-16T03:49:16;-6.10;73.70
3416;DHT22;1721;51.238;9.562;2022-12-16T03:51:42;-6.10;73.90
3416;DHT22;1721;51.238;9.562;2022-12-16T03:54:07;-6.10;73.90
3416;DHT22;1721;51.238;9.562;2022-12-16T03:56:33;-6.20;74.20
3416;DHT22;1721;51.238;9.562;2022-12-16T03:58:58;-6.20;74.60
3416;DHT22;1721;51.238;9.562;2022-12-16T04:01:24;-6.40;74.60
3416;DHT22;1721;51.238;9.562;2022-12-16T04:03:50;-6.40;74.70
3416;DHT22;1721;51.238;9.562;2022-12-16T04:06:16;-6.30;74.50
3416;DHT22;1721;51.238;9.562;2022-12-16T04:08:44;-6.30;74.20
3416;DHT22;1721;51.238;9.562;2022-12-16T04:11:11;-6.30;74.30
3416;DHT22;1721;51.238;9.562;2022-12-16T04:13:55;-6.20;74.40
3416;DHT22;1721;51.238;9.562;2022-12-16T04:16:40;-6.20;74.30
3416;DHT22;1721;51.238;9.562;2022-12-16T04:19:27;-6.20;73.90
3416;DHT22;1721;51.238;9.562;2022-12-16T04:22:37;-6.10;73.80
3416;DHT22;1721;51.238;9.562;2022-12-16T04:25:33;-6.10;73.40
3416;DHT22;1721;51.238;9.562;2022-12-16T04:28:00;-6.10;73.30
3416;DHT22;1721;51.238;9.562;2022-12-16T04:30:27;-6.10;73.00
3416;DHT22;1721;51.238;9.562;2022-12-16T04:33:00;-6.10;73.00
3416;DHT22;1721;51.238;9.562;2022-12-16T04:35:45;-6.20;72.90
3416;DHT22;1721;51.238;9.562;2022-12-16T04:38:30;-6.20;73.10
3416;DHT22;1721;51.238;9.562;2022-12-16T04:41:14;-6.30;73.10
3416;DHT22;1721;51.238;9.562;2022-12-16T04:43:58;-6.20;73.30
3416;DHT22;1721;51.238;9.562;2022-12-16T04:46:43;-6.30;73.20
3416;DHT22;1721;51.238;9.562;2022-12-16T04:49:27;-6.20;73.20
3416;DHT22;1721;51.238;9.562;2022-12-16T04:52:12;-6.30;72.90
3416;DHT22;1721;51.238;9.562;2022-12-16T04:54:57;-6.20;72.90
3416;DHT22;1721;51.238;9.562;2022-12-16T04:57:47;-6.20;73.00
3416;DHT22;1721;51.238;9.562;2022-12-16T05:00:32;-6.30;73.20
3416;DHT22;1721;51.238;9.562;2022-12-16T05:03:16;-6.40;74.10
3416;DHT22;1721;51.238;9.562;2022-12-16T05:06:00;-6.20;74.30
3416;DHT22;1721;51.238;9.562;2022-12-16T05:08:44;-6.20;74.20
3416;DHT22;1721;51.238;9.562;2022-12-16T05:11:29;-6.20;73.50
3416;DHT22;1721;51.238;9.562;2022-12-16T05:14:13;-6.20;73.30
3416;DHT22;1721;51.238;9.562;2022-12-16T05:16:57;-6.20;72.70
3416;DHT22;1721;51.238;9.562;2022-12-16T05:19:41;-6.20;72.50
3416;DHT22;1721;51.238;9.562;2022-12-16T05:22:26;-6.30;72.40
3416;DHT22;1721;51.238;9.562;2022-12-16T05:25:10;-6.30;72.80
3416;DHT22;1721;51.238;9.562;2022-12-16T05:27:54;-6.30;73.00
3416;DHT22;1721;51.238;9.562;2022-12-16T05:30:38;-6.30;73.60
3416;DHT22;1721;51.238;9.562;2022-12-16T05:33:23;-6.40;73.00
3416;DHT22;1721;51.238;9.562;2022-12-16T05:36:07;-6.30;73.30
3416;DHT22;1721;51.238;9.562;2022-12-16T05:38:52;-6.40;73.90
3416;DHT22;1721;51.238;9.562;2022-12-16T05:41:37;-6.30;73.90
3416;DHT22;1721;51.238;9.562;2022-12-16T05:44:21;-6.30;73.90
3416;DHT22;1721;51.238;9.562;2022-12-16T05:47:06;-6.30;73.80
3416;DHT22;1721;51.238;9.562;2022-12-16T05:49:51;-6.20;73.70
3416;DHT22;1721;51.238;9.562;2022-12-16T05:52:35;-6.30;73.40
3416;DHT22;1721;51.238;9.562;2022-12-16T05:55:20;-6.30;73.60
3416;DHT22;1721;51.238;9.562;2022-12-16T05:58:04;-6.20;74.30
3416;DHT22;1721;51.238;9.562;2022-12-16T06:00:49;-6.10;74.50
3416;DHT22;1721;51.238;9.562;2022-12-16T06:03:33;-6.10;74.20
3416;DHT22;1721;51.238;9.562;2022-12-16T06:06:17;-6.00;73.90
3416;DHT22;1721;51.238;9.562;2022-12-16T06:09:01;-6.00;73.70
3416;DHT22;1721;51.238;9.562;2022-12-16T06:11:45;-6.10;73.30
3416;DHT22;1721;51.238;9.562;2022-12-16T06:14:30;-6.10;73.50
3416;DHT22;1721;51.238;9.562;2022-12-16T06:17:14;-6.10;73.30
3416;DHT22;1721;51.238;9.562;2022-12-16T06:19:58;-6.10;73.30
3416;DHT22;1721;51.238;9.562;2022-12-16T06:22:43;-6.10;73.20
3416;DHT22;1721;51.238;9.562;2022-12-16T06:25:28;-6.00;73.10
3416;DHT22;1721;51.238;9.562;2022-12-16T06:28:12;-6.10;73.00
3416;DHT22;1721;51.238;9.562;2022-12-16T06:30:56;-6.10;73.00
3416;DHT22;1721;51.238;9.562;2022-12-16T06:33:40;-6.30;73.00
3416;DHT22;1721;51.238;9.562;2022-12-16T06:36:41;-6.30;73.50
3416;DHT22;1721;51.238;9.562;2022-12-16T06:39:25;-6.30;74.10
3416;DHT22;1721;51.238;9.562;2022-12-16T06:42:09;-6.30;74.30
3416;DHT22;1721;51.238;9.562;2022-12-16T06:44:53;-6.30;74.50
3416;DHT22;1721;51.238;9.562;2022-12-16T06:47:38;-6.20;74.80
3416;DHT22;1721;51.238;9.562;2022-12-16T06:50:23;-6.10;74.60
3416;DHT22;1721;51.238;9.562;2022-12-16T06:53:06;-6.00;74.50
3416;DHT22;1721;51.238;9.562;2022-12-16T06:55:51;-5.90;74.30
3416;DHT22;1721;51.238;9.562;2022-12-16T06:58:35;-5.90;74.10
3416;DHT22;1721;51.238;9.562;2022-12-16T07:01:20;-5.90;73.60
3416;DHT22;1721;51.238;9.562;2022-12-16T07:04:04;-6.00;73.10
3416;DHT22;1721;51.238;9.562;2022-12-16T07:06:48;-6.10;73.60
3416;DHT22;1721;51.238;9.562;2022-12-16T07:09:32;-6.10;74.00
3416;DHT22;1721;51.238;9.562;2022-12-16T07:12:17;-6.10;74.20
3416;DHT22;1721;51.238;9.562;2022-12-16T07:15:01;-6.20;74.90
3416;DHT22;1721;51.238;9.562;2022-12-16T07:17:45;-6.20;75.40
3416;DHT22;1721;51.238;9.562;2022-12-16T07:20:30;-6.20;75.40
3416;DHT22;1721;51.238;9.562;2022-12-16T07:23:14;-6.10;75.50
3416;DHT22;1721;51.238;9.562;2022-12-16T07:25:59;-6.00;75.20
3416;DHT22;1721;51.238;9.562;2022-12-16T07:28:43;-5.90;75.20
3416;DHT22;1721;51.238;9.562;2022-12-16T07:31:27;-5.90;75.00
3416;DHT22;1721;51.238;9.562;2022-12-16T07:34:12;-5.90;75.10
3416;DHT22;1721;51.238;9.562;2022-12-16T07:37:00;-5.90;75.20
3416;DHT22;1721;51.238;9.562;2022-12-16T07:39:45;-5.80;75.20
3416;DHT22;1721;51.238;9.562;2022-12-16T07:42:29;-5.80;74.90
3416;DHT22;1721;51.238;9.562;2022-12-16T07:45:14;-5.70;74.80
3416;DHT22;1721;51.238;9.562;2022-12-16T07:47:58;-5.70;74.50
3416;DHT22;1721;51.238;9.562;2022-12-16T07:50:42;-5.70;74.60
3416;DHT22;1721;51.238;9.562;2022-12-16T07:53:27;-5.60;74.60
3416;DHT22;1721;51.238;9.562;2022-12-16T07:56:11;-5.60;74.50
3416;DHT22;1721;51.238;9.562;2022-12-16T07:58:56;-5.60;74.60
3416;DHT22;1721;51.238;9.562;2022-12-16T08:01:40;-5.60;74.60
3416;DHT22;1721;51.238;9.562;2022-12-16T08:04:24;-5.60;75.00
3416;DHT22;1721;51.238;9.562;2022-12-16T08:07:08;-5.60;75.10
3416;DHT22;1721;51.238;9.562;2022-12-16T08:09:53;-5.60;74.90
3416;DHT22;1721;51.238;9.562;2022-12-16T08:12:37;-5.50;74.90
3416;DHT22;1721;51.238;9.562;2022-12-16T08:15:32;-5.50;74.70
3416;DHT22;1721;51.238;9.562;2022-12-16T08:18:16;-5.40;74.80
3416;DHT22;1721;51.238;9.562;2022-12-16T08:21:00;-5.40;75.00
3416;DHT22;1721;51.238;9.562;2022-12-16T08:23:45;-5.20;75.00
3416;DHT22;1721;51.238;9.562;2022-12-16T08:26:29;-5.10;75.00
3416;DHT22;1721;51.238;9.562;2022-12-16T08:29:14;-5.10;74.90
3416;DHT22;1721;51.238;9.562;2022-12-16T08:31:58;-5.00;75.10
3416;DHT22;1721;51.238;9.562;2022-12-16T08:34:42;-4.90;75.50
3416;DHT22;1721;51.238;9.562;2022-12-16T08:37:27;-4.80;75.80
3416;DHT22;1721;51.238;9.562;2022-12-16T08:40:11;-4.90;76.20
3416;DHT22;1721;51.238;9.562;2022-12-16T08:42:56;-4.80;77.30
3416;DHT22;1721;51.238;9.562;2022-12-16T08:45:41;-4.70;77.10
3416;DHT22;1721;51.238;9.562;2022-12-16T08:48:26;-4.80;77.90
3416;DHT22;1721;51.238;9.562;2022-12-16T08:51:10;-4.60;77.70
3416;DHT22;1721;51.238;9.562;2022-12-16T08:53:54;-4.80;77.30
3416;DHT22;1721;51.238;9.562;2022-12-16T08:56:38;-4.80;78.60
3416;DHT22;1721;51.238;9.562;2022-12-16T08:59:23;-4.80;79.30
3416;DHT22;1721;51.238;9.562;2022-12-16T09:02:09;-4.60;78.60
3416;DHT22;1721;51.238;9.562;2022-12-16T09:04:53;-4.40;78.20
3416;DHT22;1721;51.238;9.562;2022-12-16T09:07:37;-4.20;77.80
3416;DHT22;1721;51.238;9.562;2022-12-16T09:10:22;-4.10;77.50
3416;DHT22;1721;51.238;9.562;2022-12-16T09:13:11;-4.00;77.30
3416;DHT22;1721;51.238;9.562;2022-12-16T09:15:55;-3.80;77.30
3416;DHT22;1721;51.238;9.562;2022-12-16T09:18:39;-3.80;77.10
3416;DHT22;1721;51.238;9.562;2022-12-16T09:21:24;-3.80;77.40
3416;DHT22;1721;51.238;9.562;2022-12-16T09:24:08;-3.70;77.70
3416;DHT22;1721;51.238;9.562;2022-12-16T09:26:52;-3.60;77.90
3416;DHT22;1721;51.238;9.562;2022-12-16T09:29:36;-3.40;78.10
3416;DHT22;1721;51.238;9.562;2022-12-16T09:32:21;-3.20;78.20
3416;DHT22;1721;51.238;9.562;2022-12-16T09:35:05;-3.10;78.60
3416;DHT22;1721;51.238;9.562;2022-12-16T09:37:50;-2.80;79.60
3416;DHT22;1721;51.238;9.562;2022-12-16T09:40:37;-2.50;80.50
3416;DHT22;1721;51.238;9.562;2022-12-16T09:46:40;-2.10;80.40
3416;DHT22;1721;51.238;9.562;2022-12-16T09:49:42;-1.90;80.80
3416;DHT22;1721;51.238;9.562;2022-12-16T09:52:32;-1.70;81.20
3416;DHT22;1721;51.238;9.562;2022-12-16T09:55:24;-1.50;81.30
3416;DHT22;1721;51.238;9.562;2022-12-16T09:58:11;-1.30;80.80
3416;DHT22;1721;51.238;9.562;2022-12-16T10:00:55;-1.20;81.40
3416;DHT22;1721;51.238;9.562;2022-12-16T10:03:40;-1.20;81.90
3416;DHT22;1721;51.238;9.562;2022-12-16T10:06:46;-1.20;81.50
3416;DHT22;1721;51.238;9.562;2022-12-16T10:12:45;-1.20;81.70
3416;DHT22;1721;51.238;9.562;2022-12-16T10:15:48;-1.20;82.20
3416;DHT22;1721;51.238;9.562;2022-12-16T10:22:20;-1.20;82.30
3416;DHT22;1721;51.238;9.562;2022-12-16T10:25:21;-1.10;82.40
3416;DHT22;1721;51.238;9.562;2022-12-16T10:28:15;-1.10;82.40
3416;DHT22;1721;51.238;9.562;2022-12-16T10:31:01;-1.10;82.60
3416;DHT22;1721;51.238;9.562;2022-12-16T10:33:48;-1.10;83.40
3416;DHT22;1721;51.238;9.562;2022-12-16T10:36:35;-1.00;83.60
3416;DHT22;1721;51.238;9.562;2022-12-16T10:39:25;-1.10;83.80
3416;DHT22;1721;51.238;9.562;2022-12-16T10:42:20;-1.10;84.30
3416;DHT22;1721;51.238;9.562;2022-12-16T10:45:58;-1.20;85.10
3416;DHT22;1721;51.238;9.562;2022-12-16T10:48:23;-1.10;85.00
3416;DHT22;1721;51.238;9.562;2022-12-16T10:51:13;-1.10;84.90
3416;DHT22;1721;51.238;9.562;2022-12-16T11:06:00;-1.80;86.50
3416;DHT22;1721;51.238;9.562;2022-12-16T11:08:45;-1.70;86.60
3416;DHT22;1721;51.238;9.562;2022-12-16T11:11:29;-1.60;86.30
3416;DHT22;1721;51.238;9.562;2022-12-16T11:14:28;-1.60;86.30
3416;DHT22;1721;51.238;9.562;2022-12-16T11:17:18;-1.40;86.50
3416;DHT22;1721;51.238;9.562;2022-12-16T11:20:16;-1.40;86.70
3416;DHT22;1721;51.238;9.562;2022-12-16T11:23:20;-1.20;86.70
3416;DHT22;1721;51.238;9.562;2022-12-16T11:26:15;-1.20;86.80
3416;DHT22;1721;51.238;9.562;2022-12-16T11:29:13;-1.10;86.90
3416;DHT22;1721;51.238;9.562;2022-12-16T11:32:19;-1.00;86.60
3416;DHT22;1721;51.238;9.562;2022-12-16T11:35:10;-1.00;86.70
3416;DHT22;1721;51.238;9.562;2022-12-16T11:37:56;-1.00;86.70
3416;DHT22;1721;51.238;9.562;2022-12-16T11:40:42;-0.80;86.30
3416;DHT22;1721;51.238;9.562;2022-12-16T11:43:34;-0.60;86.20
3416;DHT22;1721;51.238;9.562;2022-12-16T11:46:25;-0.60;86.20
3416;DHT22;1721;51.238;9.562;2022-12-16T11:49:31;-0.50;86.30
3416;DHT22;1721;51.238;9.562;2022-12-16T11:52:17;-0.60;86.40
3416;DHT22;1721;51.238;9.562;2022-12-16T12:03:53;-0.70;88.10
3416;DHT22;1721;51.238;9.562;2022-12-16T12:07:09;-0.60;88.10
3416;DHT22;1721;51.238;9.562;2022-12-16T12:13:06;-0.40;88.10
3416;DHT22;1721;51.238;9.562;2022-12-16T12:16:05;-0.40;87.80
3416;DHT22;1721;51.238;9.562;2022-12-16T12:19:12;-0.30;88.30
3416;DHT22;1721;51.238;9.562;2022-12-16T12:22:03;-0.20;88.10
3416;DHT22;1721;51.238;9.562;2022-12-16T12:34:08;-0.10;88.10
3416;DHT22;1721;51.238;9.562;2022-12-16T12:37:16;-0.10;87.90
3416;DHT22;1721;51.238;9.562;2022-12-16T12:46:59;0.10;87.60
3416;DHT22;1721;51.238;9.562;2022-12-16T12:58:36;-0.10;87.90
3416;DHT22;1721;51.238;9.562;2022-12-16T13:01:25;0.00;88.10
3416;DHT22;1721;51.238;9.562;2022-12-16T13:04:14;0.00;87.70
3416;DHT22;1721;51.238;9.562;2022-12-16T13:07:00;0.00;87.70
3416;DHT22;1721;51.238;9.562;2022-12-16T13:09:45;0.10;87.50
3416;DHT22;1721;51.238;9.562;2022-12-16T13:16:02;0.00;87.00
3416;DHT22;1721;51.238;9.562;2022-12-16T13:18:46;-0.10;87.50
3416;DHT22;1721;51.238;9.562;2022-12-16T13:24:39;-0.20;87.60
3416;DHT22;1721;51.238;9.562;2022-12-16T13:27:25;-0.30;88.10
3416;DHT22;1721;51.238;9.562;2022-12-16T13:33:01;-0.30;88.30
3416;DHT22;1721;51.238;9.562;2022-12-16T13:35:58;-0.20;87.90
3416;DHT22;1721;51.238;9.562;2022-12-16T13:38:48;-0.30;87.80
3416;DHT22;1721;51.238;9.562;2022-12-16T13:50:38;-0.10;87.30
3416;DHT22;1721;51.238;9.562;2022-12-16T13:53:26;-0.20;87.30
3416;DHT22;1721;51.238;9.562;2022-12-16T13:56:13;-0.20;87.30
3416;DHT22;1721;51.238;9.562;2022-12-16T13:59:00;-0.20;87.30
3416;DHT22;1721;51.238;9.562;2022-12-16T14:01:56;-0.30;87.20
3416;DHT22;1721;51.238;9.562;2022-12-16T14:04:46;-0.30;87.20
3416;DHT22;1721;51.238;9.562;2022-12-16T14:07:33;-0.30;87.10
3416;DHT22;1721;51.238;9.562;2022-12-16T14:10:24;-0.40;88.30
3416;DHT22;1721;51.238;9.562;2022-12-16T14:13:32;-0.50;87.50
3416;DHT22;1721;51.238;9.562;2022-12-16T14:25:28;-0.50;86.90
3416;DHT22;1721;51.238;9.562;2022-12-16T14:28:28;-0.50;86.50
3416;DHT22;1721;51.238;9.562;2022-12-16T14:34:14;-0.60;85.60
3416;DHT22;1721;51.238;9.562;2022-12-16T14:36:58;-0.70;85.30
3416;DHT22;1721;51.238;9.562;2022-12-16T14:39:42;-0.80;85.20
3416;DHT22;1721;51.238;9.562;2022-12-16T14:42:28;-0.80;85.00
3416;DHT22;1721;51.238;9.562;2022-12-16T14:51:25;-1.00;84.40
3416;DHT22;1721;51.238;9.562;2022-12-16T14:54:23;-1.10;83.80
3416;DHT22;1721;51.238;9.562;2022-12-16T14:57:33;-1.20;83.50
3416;DHT22;1721;51.238;9.562;2022-12-16T15:00:20;-1.30;83.30
3416;DHT22;1721;51.238;9.562;2022-12-16T15:03:23;-1.40;83.30
3416;DHT22;1721;51.238;9.562;2022-12-16T15:06:16;-1.40;83.50
3416;DHT22;1721;51.238;9.562;2022-12-16T15:09:04;-1.40;83.90
3416;DHT22;1721;51.238;9.562;2022-12-16T15:11:51;-1.40;84.00
3416;DHT22;1721;51.238;9.562;2022-12-16T15:14:38;-1.30;84.10
3416;DHT22;1721;51.238;9.562;2022-12-16T15:17:30;-1.30;84.50
3416;DHT22;1721;51.238;9.562;2022-12-16T15:20:23;-1.30;85.30
3416;DHT22;1721;51.238;9.562;2022-12-16T15:23:18;-1.10;84.90
3416;DHT22;1721;51.238;9.562;2022-12-16T15:26:03;-1.10;85.10
3416;DHT22;1721;51.238;9.562;2022-12-16T15:28:48;-1.10;85.20
3416;DHT22;1721;51.238;9.562;2022-12-16T15:31:35;-0.90;85.40
3416;DHT22;1721;51.238;9.562;2022-12-16T15:34:26;-0.90;85.30
3416;DHT22;1721;51.238;9.562;2022-12-16T15:37:19;-0.90;85.60
3416;DHT22;1721;51.238;9.562;2022-12-16T15:40:19;-0.80;85.90
3416;DHT22;1721;51.238;9.562;2022-12-16T15:43:03;-0.70;85.80
3416;DHT22;1721;51.238;9.562;2022-12-16T15:45:48;-0.70;85.80
3416;DHT22;1721;51.238;9.562;2022-12-16T15:48:34;-0.60;85.80
3416;DHT22;1721;51.238;9.562;2022-12-16T15:51:38;-0.50;85.90
3416;DHT22;1721;51.238;9.562;2022-12-16T15:54:24;-0.40;86.10
3416;DHT22;1721;51.238;9.562;2022-12-16T15:57:31;-0.40;86.00
3416;DHT22;1721;51.238;9.562;2022-12-16T16:00:26;-0.30;86.10
3416;DHT22;1721;51.238;9.562;2022-12-16T16:03:36;-0.30;86.10
3416;DHT22;1721;51.238;9.562;2022-12-16T16:06:22;-0.20;86.10
3416;DHT22;1721;51.238;9.562;2022-12-16T16:09:25;-0.20;86.00
3416;DHT22;1721;51.238;9.562;2022-12-16T16:12:14;-0.30;86.10
3416;DHT22;1721;51.238;9.562;2022-12-16T16:14:59;-0.40;86.80
3416;DHT22;1721;51.238;9.562;2022-12-16T16:17:43;-0.40;86.70
3416;DHT22;1721;51.238;9.562;2022-12-16T16:20:27;-0.30;86.60
3416;DHT22;1721;51.238;9.562;2022-12-16T16:23:12;-0.30;87.10
3416;DHT22;1721;51.238;9.562;2022-12-16T16:25:56;-0.30;86.50
3416;DHT22;1721;51.238;9.562;2022-12-16T16:28:41;-0.30;86.50
3416;DHT22;1721;51.238;9.562;2022-12-16T16:31:26;-0.30;86.50
3416;DHT22;1721;51.238;9.562;2022-12-16T16:34:11;-0.30;86.80
3416;DHT22;1721;51.238;9.562;2022-12-16T16:36:56;-0.30;86.40
3416;DHT22;1721;51.238;9.562;2022-12-16T16:39:42;-0.40;86.20
3416;DHT22;1721;51.238;9.562;2022-12-16T16:42:27;-0.50;86.40
3416;DHT22;1721;51.238;9.562;2022-12-16T16:45:12;-0.50;86.40
3416;DHT22;1721;51.238;9.562;2022-12-16T16:48:23;-0.80;86.30
3416;DHT22;1721;51.238;9.562;2022-12-16T16:51:07;-1.10;87.30
3416;DHT22;1721;51.238;9.562;2022-12-16T16:53:52;-1.00;87.50
3416;DHT22;1721;51.238;9.562;2022-12-16T16:56:37;-0.90;87.30
3416;DHT22;1721;51.238;9.562;2022-12-16T16:59:35;-0.80;86.90
3416;DHT22;1721;51.238;9.562;2022-12-16T17:02:22;-0.80;86.40
3416;DHT22;1721;51.238;9.562;2022-12-16T17:05:07;-0.80;85.80
3416;DHT22;1721;51.238;9.562;2022-12-16T17:07:51;-1.00;84.30
3416;DHT22;1721;51.238;9.562;2022-12-16T17:10:36;-1.20;83.60
3416;DHT22;1721;51.238;9.562;2022-12-16T17:13:20;-1.40;83.20
3416;DHT22;1721;51.238;9.562;2022-12-16T17:16:05;-1.60;82.50
3416;DHT22;1721;51.238;9.562;2022-12-16T17:18:49;-1.80;81.60
3416;DHT22;1721;51.238;9.562;2022-12-16T17:21:33;-1.90;81.40
3416;DHT22;1721;51.238;9.562;2022-12-16T17:24:18;-2.00;81.50
3416;DHT22;1721;51.238;9.562;2022-12-16T17:27:19;-2.20;81.00
3416;DHT22;1721;51.238;9.562;2022-12-16T17:30:10;-2.30;80.60
3416;DHT22;1721;51.238;9.562;2022-12-16T17:32:56;-2.40;80.40
3416;DHT22;1721;51.238;9.562;2022-12-16T17:35:40;-2.50;80.20
3416;DHT22;1721;51.238;9.562;2022-12-16T17:38:24;-2.60;80.00
3416;DHT22;1721;51.238;9.562;2022-12-16T17:41:09;-2.70;80.00
3416;DHT22;1721;51.238;9.562;2022-12-16T17:43:53;-2.70;79.60
3416;DHT22;1721;51.238;9.562;2022-12-16T17:46:37;-2.90;79.40
3416;DHT22;1721;51.238;9.562;2022-12-16T17:49:22;-3.00;79.60
3416;DHT22;1721;51.238;9.562;2022-12-16T17:52:06;-3.10;79.40
3416;DHT22;1721;51.238;9.562;2022-12-16T17:54:50;-3.10;79.30
3416;DHT22;1721;51.238;9.562;2022-12-16T17:57:34;-3.20;79.20
3416;DHT22;1721;51.238;9.562;2022-12-16T18:00:19;-3.30;78.90
3416;DHT22;1721;51.238;9.562;2022-12-16T18:03:03;-3.40;78.90
3416;DHT22;1721;51.238;9.562;2022-12-16T18:05:48;-3.40;78.80
3416;DHT22;1721;51.238;9.562;2022-12-16T18:08:38;-3.40;78.70
3416;DHT22;1721;51.238;9.562;2022-12-16T18:11:22;-3.50;78.60
3416;DHT22;1721;51.238;9.562;2022-12-16T18:14:07;-3.60;78.50
3416;DHT22;1721;51.238;9.562;2022-12-16T18:16:51;-3.60;78.50
3416;DHT22;1721;51.238;9.562;2022-12-16T18:19:35;-3.70;78.70
3416;DHT22;1721;51.238;9.562;2022-12-16T18:22:19;-3.80;78.70
3416;DHT22;1721;51.238;9.562;2022-12-16T18:25:04;-3.80;79.20
3416;DHT22;1721;51.238;9.562;2022-12-16T18:27:48;-3.80;79.30
3416;DHT22;1721;51.238;9.562;2022-12-16T18:30:32;-3.80;79.40
3416;DHT22;1721;51.238;9.562;2022-12-16T18:33:16;-3.80;79.40
3416;DHT22;1721;51.238;9.562;2022-12-16T18:36:01;-3.80;79.40
3416;DHT22;1721;51.238;9.562;2022-12-16T18:38:45;-3.80;79.10
3416;DHT22;1721;51.238;9.562;2022-12-16T18:41:29;-3.80;78.90
3416;DHT22;1721;51.238;9.562;2022-12-16T18:44:14;-3.90;78.80
3416;DHT22;1721;51.238;9.562;2022-12-16T18:46:58;-3.90;78.80
3416;DHT22;1721;51.238;9.562;2022-12-16T18:49:42;-3.90;78.40
3416;DHT22;1721;51.238;9.562;2022-12-16T18:52:26;-3.90;78.30
3416;DHT22;1721;51.238;9.562;2022-12-16T18:55:11;-3.90;78.00
3416;DHT22;1721;51.238;9.562;2022-12-16T18:57:55;-3.90;77.70
3416;DHT22;1721;51.238;9.562;2022-12-16T19:00:39;-4.00;77.50
3416;DHT22;1721;51.238;9.562;2022-12-16T19:03:24;-4.00;77.30
3416;DHT22;1721;51.238;9.562;2022-12-16T19:06:08;-4.10;77.40
3416;DHT22;1721;51.238;9.562;2022-12-16T19:08:53;-4.10;77.50
3416;DHT22;1721;51.238;9.562;2022-12-16T19:11:37;-4.20;77.30
3416;DHT22;1721;51.238;9.562;2022-12-16T19:14:21;-4.30;77.30
3416;DHT22;1721;51.238;9.562;2022-12-16T19:17:06;-4.20;77.30
3416;DHT22;1721;51.238;9.562;2022-12-16T19:19:50;-4.30;77.10
3416;DHT22;1721;51.238;9.562;2022-12-16T19:22:34;-4.30;77.10
3416;DHT22;1721;51.238;9.562;2022-12-16T19:25:18;-4.30;77.20
3416;DHT22;1721;51.238;9.562;2022-12-16T19:28:02;-4.40;77.10
3416;DHT22;1721;51.238;9.562;2022-12-16T19:30:54;-4.40;77.20
3416;DHT22;1721;51.238;9.562;2022-12-16T19:33:41;-4.30;77.30
3416;DHT22;1721;51.238;9.562;2022-12-16T19:36:25;-4.40;77.00
3416;DHT22;1721;51.238;9.562;2022-12-16T19:39:10;-4.40;77.00
3416;DHT22;1721;51.238;9.562;2022-12-16T19:41:54;-4.50;77.00
3416;DHT22;1721;51.238;9.562;2022-12-16T19:44:38;-4.50;77.00
3416;DHT22;1721;51.238;9.562;2022-12-16T19:47:23;-4.50;76.70
3416;DHT22;1721;51.238;9.562;2022-12-16T19:50:08;-4.50;76.70
3416;DHT22;1721;51.238;9.562;2022-12-16T19:52:52;-4.50;76.70
3416;DHT22;1721;51.238;9.562;2022-12-16T19:55:37;-4.50;76.60